sensor_id;sensor_type;location;lat;lon;timestamp;pressure;altitude;pressure_sealevel;temperature
27986;BMP280;15453;53.692;10.168;2023-08-31T00:01:32;100111.38;;;20.27
27986;BMP280;15453;53.692;10.168;2023-08-31T00:03:59;100108.75;;;20.22
27986;BMP280;15453;53.692;10.168;2023-08-31T00:06:25;100108.94;;;20.17
27986;BMP280;15453;53.692;10.168;2023-08-31T00:08:50;100113.50;;;20.13
27986;BMP280;15453;53.692;10.168;2023-08-31T00:11:15;100103.88;;;20.10
27986;BMP280;15453;53.692;10.168;2023-08-31T00:13:41;100111.97;;;20.07
27986;BMP280;15453;53.692;10.168;2023-08-31T00:16:06;100115.91;;;20.06
27986;BMP280;15453;53.692;10.168;2023-08-31T00:18:34;100112.31;;;20.05
27986;BMP280;15453;53.692;10.168;2023-08-31T00:21:00;100114.59;;;20.03
27986;BMP280;15453;53.692;10.168;2023-08-31T00:23:26;100108.22;;;20.03
27986;BMP280;15453;53.692;10.168;2023-08-31T00:25:52;100111.31;;;20.01
27986;BMP280;15453;53.692;10.168;2023-08-31T00:28:18;100110.03;;;19.99
27986;BMP280;15453;53.692;10.168;2023-08-31T00:30:44;100109.53;;;19.97
27986;BMP280;15453;53.692;10.168;2023-08-31T00:33:10;100106.25;;;19.95
27986;BMP280;15453;53.692;10.168;2023-08-31T00:35:35;100104.63;;;19.94
27986;BMP280;15453;53.692;10.168;2023-08-31T00:38:00;100106.09;;;19.91
27986;BMP280;15453;53.692;10.168;2023-08-31T00:40:27;100100.88;;;19.90
27986;BMP280;15453;53.692;10.168;2023-08-31T00:42:55;100102.81;;;19.89
27986;BMP280;15453;53.692;10.168;2023-08-31T00:45:22;100102.81;;;19.89
27986;BMP280;15453;53.692;10.168;2023-08-31T00:47:48;100101.84;;;19.85
27986;BMP280;15453;53.692;10.168;2023-08-31T00:50:14;100107.41;;;19.85
27986;BMP280;15453;53.692;10.168;2023-08-31T00:52:41;100106.59;;;19.85
27986;BMP280;15453;53.692;10.168;2023-08-31T00:55:09;100108.84;;;19.83
27986;BMP280;15453;53.692;10.168;2023-08-31T00:57:35;100112.78;;;19.82
27986;BMP280;15453;53.692;10.168;2023-08-31T01:00:00;100111.16;;;19.81
27986;BMP280;15453;53.692;10.168;2023-08-31T01:02:34;100111.16;;;19.81
27986;BMP280;15453;53.692;10.168;2023-08-31T01:05:11;100120.47;;;19.76
27986;BMP280;15453;53.692;10.168;2023-08-31T01:11:27;100111.13;;;19.72
27986;BMP280;15453;53.692;10.168;2023-08-31T01:13:25;100122.75;;;19.74
27986;BMP280;15453;53.692;10.168;2023-08-31T01:15:56;100122.75;;;19.74
27986;BMP280;15453;53.692;10.168;2023-08-31T01:18:25;100113.13;;;19.72
27986;BMP280;15453;53.692;10.168;2023-08-31T01:21:00;100124.88;;;19.69
27986;BMP280;15453;53.692;10.168;2023-08-31T01:23:55;100131.72;;;19.63
27986;BMP280;15453;53.692;10.168;2023-08-31T01:26:22;100131.72;;;19.63
27986;BMP280;15453;53.692;10.168;2023-08-31T01:28:48;100136.28;;;19.59
27986;BMP280;15453;53.692;10.168;2023-08-31T01:31:14;100126.47;;;19.53
27986;BMP280;15453;53.692;10.168;2023-08-31T01:33:42;100128.25;;;19.49
27986;BMP280;15453;53.692;10.168;2023-08-31T01:36:16;100134.78;;;19.44
27986;BMP280;15453;53.692;10.168;2023-08-31T01:38:45;100129.03;;;19.41
27986;BMP280;15453;53.692;10.168;2023-08-31T01:41:14;100126.94;;;19.38
27986;BMP280;15453;53.692;10.168;2023-08-31T01:43:43;100128.03;;;19.37
27986;BMP280;15453;53.692;10.168;2023-08-31T01:46:09;100129.03;;;19.32
27986;BMP280;15453;53.692;10.168;2023-08-31T01:48:39;100133.75;;;19.32
27986;BMP280;15453;53.692;10.168;2023-08-31T01:51:06;100136.34;;;19.28
27986;BMP280;15453;53.692;10.168;2023-08-31T01:53:31;100134.72;;;19.27
27986;BMP280;15453;53.692;10.168;2023-08-31T01:55:56;100138.94;;;19.25
27986;BMP280;15453;53.692;10.168;2023-08-31T01:58:22;100152.81;;;19.25
27986;BMP280;15453;53.692;10.168;2023-08-31T02:00:48;100152.81;;;19.25
27986;BMP280;15453;53.692;10.168;2023-08-31T02:03:13;100142.34;;;19.22
27986;BMP280;15453;53.692;10.168;2023-08-31T02:05:38;100141.72;;;19.25
27986;BMP280;15453;53.692;10.168;2023-08-31T02:08:03;100141.72;;;19.25
27986;BMP280;15453;53.692;10.168;2023-08-31T02:10:29;100151.00;;;19.20
27986;BMP280;15453;53.692;10.168;2023-08-31T02:12:55;100149.03;;;19.21
27986;BMP280;15453;53.692;10.168;2023-08-31T02:15:20;100143.50;;;19.21
27986;BMP280;15453;53.692;10.168;2023-08-31T02:17:45;100149.03;;;19.21
27986;BMP280;15453;53.692;10.168;2023-08-31T02:20:11;100150.16;;;19.20
27986;BMP280;15453;53.692;10.168;2023-08-31T02:22:36;100158.00;;;19.18
27986;BMP280;15453;53.692;10.168;2023-08-31T02:25:01;100158.00;;;19.18
27986;BMP280;15453;53.692;10.168;2023-08-31T02:27:27;100149.81;;;19.13
27986;BMP280;15453;53.692;10.168;2023-08-31T02:29:52;100159.56;;;19.10
27986;BMP280;15453;53.692;10.168;2023-08-31T02:32:18;100164.66;;;19.08
27986;BMP280;15453;53.692;10.168;2023-08-31T02:34:44;100159.72;;;19.05
27986;BMP280;15453;53.692;10.168;2023-08-31T02:37:09;100162.50;;;19.05
27986;BMP280;15453;53.692;10.168;2023-08-31T02:39:34;100156.47;;;19.03
27986;BMP280;15453;53.692;10.168;2023-08-31T02:41:59;100150.72;;;19.00
27986;BMP280;15453;53.692;10.168;2023-08-31T02:44:25;100159.38;;;18.98
27986;BMP280;15453;53.692;10.168;2023-08-31T02:46:50;100159.38;;;18.98
27986;BMP280;15453;53.692;10.168;2023-08-31T02:49:15;100152.00;;;18.94
27986;BMP280;15453;53.692;10.168;2023-08-31T02:51:40;100143.50;;;18.90
27986;BMP280;15453;53.692;10.168;2023-08-31T02:54:06;100144.63;;;18.89
27986;BMP280;15453;53.692;10.168;2023-08-31T02:56:31;100142.97;;;18.88
27986;BMP280;15453;53.692;10.168;2023-08-31T02:58:57;100158.84;;;18.88
27986;BMP280;15453;53.692;10.168;2023-08-31T03:01:22;100158.84;;;18.88
27986;BMP280;15453;53.692;10.168;2023-08-31T03:03:49;100152.28;;;18.84
27986;BMP280;15453;53.692;10.168;2023-08-31T03:06:14;100162.84;;;18.82
27986;BMP280;15453;53.692;10.168;2023-08-31T03:08:40;100174.28;;;18.80
27986;BMP280;15453;53.692;10.168;2023-08-31T03:11:06;100173.78;;;18.78
27986;BMP280;15453;53.692;10.168;2023-08-31T03:13:32;100165.25;;;18.75
27986;BMP280;15453;53.692;10.168;2023-08-31T03:15:57;100159.22;;;18.73
27986;BMP280;15453;53.692;10.168;2023-08-31T03:18:23;100165.09;;;18.71
27986;BMP280;15453;53.692;10.168;2023-08-31T03:20:48;100166.53;;;18.69
27986;BMP280;15453;53.692;10.168;2023-08-31T03:23:14;100167.16;;;18.66
27986;BMP280;15453;53.692;10.168;2023-08-31T03:25:39;100172.22;;;18.64
27986;BMP280;15453;53.692;10.168;2023-08-31T03:28:05;100163.69;;;18.60
27986;BMP280;15453;53.692;10.168;2023-08-31T03:30:30;100164.34;;;18.57
27986;BMP280;15453;53.692;10.168;2023-08-31T03:32:55;100168.88;;;18.53
27986;BMP280;15453;53.692;10.168;2023-08-31T03:35:20;100169.50;;;18.50
27986;BMP280;15453;53.692;10.168;2023-08-31T03:37:51;100173.22;;;18.46
27986;BMP280;15453;53.692;10.168;2023-08-31T03:40:16;100177.44;;;18.43
27986;BMP280;15453;53.692;10.168;2023-08-31T03:42:42;100189.16;;;18.40
27986;BMP280;15453;53.692;10.168;2023-08-31T03:45:07;100189.16;;;18.40
27986;BMP280;15453;53.692;10.168;2023-08-31T03:47:32;100180.16;;;18.35
27986;BMP280;15453;53.692;10.168;2023-08-31T03:49:58;100182.38;;;18.33
27986;BMP280;15453;53.692;10.168;2023-08-31T03:52:23;100175.50;;;18.30
27986;BMP280;15453;53.692;10.168;2023-08-31T03:54:51;100176.16;;;18.27
27986;BMP280;15453;53.692;10.168;2023-08-31T03:57:17;100182.00;;;18.26
27986;BMP280;15453;53.692;10.168;2023-08-31T03:59:43;100184.56;;;18.22
27986;BMP280;15453;53.692;10.168;2023-08-31T04:02:08;100173.00;;;18.20
27986;BMP280;15453;53.692;10.168;2023-08-31T04:04:33;100183.56;;;18.18
27986;BMP280;15453;53.692;10.168;2023-08-31T04:06:59;100181.91;;;18.17
27986;BMP280;15453;53.692;10.168;2023-08-31T04:09:24;100188.59;;;18.16
27986;BMP280;15453;53.692;10.168;2023-08-31T04:11:50;100190.53;;;18.16
27986;BMP280;15453;53.692;10.168;2023-08-31T04:14:16;100195.28;;;18.15
27986;BMP280;15453;53.692;10.168;2023-08-31T04:16:43;100186.75;;;18.12
27986;BMP280;15453;53.692;10.168;2023-08-31T04:19:08;100193.44;;;18.11
27986;BMP280;15453;53.692;10.168;2023-08-31T04:21:34;100196.81;;;18.08
27986;BMP280;15453;53.692;10.168;2023-08-31T04:24:00;100198.78;;;18.07
27986;BMP280;15453;53.692;10.168;2023-08-31T04:26:25;100198.78;;;18.07
27986;BMP280;15453;53.692;10.168;2023-08-31T04:28:50;100203.81;;;18.05
27986;BMP280;15453;53.692;10.168;2023-08-31T04:31:16;100203.81;;;18.05
27986;BMP280;15453;53.692;10.168;2023-08-31T04:33:41;100195.63;;;18.00
27986;BMP280;15453;53.692;10.168;2023-08-31T04:36:06;100195.44;;;17.97
27986;BMP280;15453;53.692;10.168;2023-08-31T04:38:33;100197.38;;;17.96
27986;BMP280;15453;53.692;10.168;2023-08-31T04:40:59;100197.97;;;17.93
27986;BMP280;15453;53.692;10.168;2023-08-31T04:43:25;100207.44;;;17.92
27986;BMP280;15453;53.692;10.168;2023-08-31T04:45:54;100215.75;;;17.92
27986;BMP280;15453;53.692;10.168;2023-08-31T04:48:19;100213.56;;;17.89
27986;BMP280;15453;53.692;10.168;2023-08-31T04:50:44;100212.78;;;17.89
27986;BMP280;15453;53.692;10.168;2023-08-31T04:53:10;100218.63;;;17.87
27986;BMP280;15453;53.692;10.168;2023-08-31T04:55:35;100224.16;;;17.87
27986;BMP280;15453;53.692;10.168;2023-08-31T04:58:00;100232.47;;;17.87
27986;BMP280;15453;53.692;10.168;2023-08-31T05:00:25;100230.84;;;17.86
27986;BMP280;15453;53.692;10.168;2023-08-31T05:02:51;100224.78;;;17.84
27986;BMP280;15453;53.692;10.168;2023-08-31T05:05:16;100235.06;;;17.84
27986;BMP280;15453;53.692;10.168;2023-08-31T05:07:43;100243.38;;;17.84
27986;BMP280;15453;53.692;10.168;2023-08-31T05:10:09;100243.38;;;17.84
27986;BMP280;15453;53.692;10.168;2023-08-31T05:12:34;100237.91;;;17.79
27986;BMP280;15453;53.692;10.168;2023-08-31T05:14:59;100239.34;;;17.76
27986;BMP280;15453;53.692;10.168;2023-08-31T05:17:25;100243.25;;;17.75
27986;BMP280;15453;53.692;10.168;2023-08-31T05:19:50;100240.78;;;17.74
27986;BMP280;15453;53.692;10.168;2023-08-31T05:22:15;100252.47;;;17.71
27986;BMP280;15453;53.692;10.168;2023-08-31T05:24:40;100254.75;;;17.69
27986;BMP280;15453;53.692;10.168;2023-08-31T05:27:06;100254.75;;;17.69
27986;BMP280;15453;53.692;10.168;2023-08-31T05:29:31;100257.31;;;17.65
27986;BMP280;15453;53.692;10.168;2023-08-31T05:31:56;100265.94;;;17.64
27986;BMP280;15453;53.692;10.168;2023-08-31T05:34:22;100261.81;;;17.61
27986;BMP280;15453;53.692;10.168;2023-08-31T05:36:50;100265.41;;;17.62
27986;BMP280;15453;53.692;10.168;2023-08-31T05:39:15;100268.16;;;17.62
27986;BMP280;15453;53.692;10.168;2023-08-31T05:41:42;100267.66;;;17.60
27986;BMP280;15453;53.692;10.168;2023-08-31T05:44:08;100274.84;;;17.61
27986;BMP280;15453;53.692;10.168;2023-08-31T05:46:33;100277.00;;;17.64
27986;BMP280;15453;53.692;10.168;2023-08-31T05:48:58;100277.00;;;17.64
27986;BMP280;15453;53.692;10.168;2023-08-31T05:51:24;100272.91;;;17.61
27986;BMP280;15453;53.692;10.168;2023-08-31T05:53:49;100270.94;;;17.62
27986;BMP280;15453;53.692;10.168;2023-08-31T05:56:14;100274.22;;;17.64
27986;BMP280;15453;53.692;10.168;2023-08-31T05:58:39;100274.53;;;17.62
27986;BMP280;15453;53.692;10.168;2023-08-31T06:01:05;100281.41;;;17.65
27986;BMP280;15453;53.692;10.168;2023-08-31T06:03:31;100287.78;;;17.65
27986;BMP280;15453;53.692;10.168;2023-08-31T06:05:57;100277.50;;;17.66
27986;BMP280;15453;53.692;10.168;2023-08-31T06:08:23;100286.66;;;17.66
27986;BMP280;15453;53.692;10.168;2023-08-31T06:10:49;100285.50;;;17.67
27986;BMP280;15453;53.692;10.168;2023-08-31T06:13:14;100286.22;;;17.73
27986;BMP280;15453;53.692;10.168;2023-08-31T06:15:39;100286.22;;;17.73
27986;BMP280;15453;53.692;10.168;2023-08-31T06:18:05;100285.72;;;17.71
27986;BMP280;15453;53.692;10.168;2023-08-31T06:20:31;100293.72;;;17.72
27986;BMP280;15453;53.692;10.168;2023-08-31T06:22:56;100296.72;;;17.76
27986;BMP280;15453;53.692;10.168;2023-08-31T06:25:21;100293.94;;;17.76
27986;BMP280;15453;53.692;10.168;2023-08-31T06:27:48;100289.72;;;17.78
27986;BMP280;15453;53.692;10.168;2023-08-31T06:30:13;100299.38;;;17.81
27986;BMP280;15453;53.692;10.168;2023-08-31T06:32:44;100299.06;;;17.82
27986;BMP280;15453;53.692;10.168;2023-08-31T06:35:11;100305.09;;;17.84
27986;BMP280;15453;53.692;10.168;2023-08-31T06:37:41;100298.44;;;17.85
27986;BMP280;15453;53.692;10.168;2023-08-31T06:40:07;100292.59;;;17.87
27986;BMP280;15453;53.692;10.168;2023-08-31T06:42:35;100295.06;;;17.88
27986;BMP280;15453;53.692;10.168;2023-08-31T06:45:05;100293.63;;;17.91
27986;BMP280;15453;53.692;10.168;2023-08-31T06:47:31;100293.31;;;17.92
27986;BMP280;15453;53.692;10.168;2023-08-31T06:49:56;100294.16;;;17.93
27986;BMP280;15453;53.692;10.168;2023-08-31T06:52:23;100281.94;;;17.94
27986;BMP280;15453;53.692;10.168;2023-08-31T06:54:49;100279.47;;;17.92
27986;BMP280;15453;53.692;10.168;2023-08-31T06:57:14;100294.63;;;17.95
27986;BMP280;15453;53.692;10.168;2023-08-31T06:59:39;100294.34;;;17.96
27986;BMP280;15453;53.692;10.168;2023-08-31T07:02:05;100292.41;;;17.97
27986;BMP280;15453;53.692;10.168;2023-08-31T07:04:30;100287.66;;;17.97
27986;BMP280;15453;53.692;10.168;2023-08-31T07:06:56;100300.06;;;18.00
27986;BMP280;15453;53.692;10.168;2023-08-31T07:09:21;100293.41;;;18.01
27986;BMP280;15453;53.692;10.168;2023-08-31T07:11:46;100302.53;;;18.01
27986;BMP280;15453;53.692;10.168;2023-08-31T07:14:11;100294.75;;;18.03
27986;BMP280;15453;53.692;10.168;2023-08-31T07:16:36;100308.81;;;18.07
27986;BMP280;15453;53.692;10.168;2023-08-31T07:19:02;100308.81;;;18.07
27986;BMP280;15453;53.692;10.168;2023-08-31T07:21:27;100295.78;;;18.07
27986;BMP280;15453;53.692;10.168;2023-08-31T07:23:53;100298.44;;;18.12
27986;BMP280;15453;53.692;10.168;2023-08-31T07:26:19;100298.44;;;18.12
27986;BMP280;15453;53.692;10.168;2023-08-31T07:28:44;100297.09;;;18.10
27986;BMP280;15453;53.692;10.168;2023-08-31T07:31:09;100300.69;;;18.10
27986;BMP280;15453;53.692;10.168;2023-08-31T07:33:35;100304.81;;;18.13
27986;BMP280;15453;53.692;10.168;2023-08-31T07:36:01;100300.91;;;18.14
27986;BMP280;15453;53.692;10.168;2023-08-31T07:38:29;100301.69;;;18.14
27986;BMP280;15453;53.692;10.168;2023-08-31T07:40:55;100300.78;;;18.19
27986;BMP280;15453;53.692;10.168;2023-08-31T07:43:20;100301.28;;;18.21
27986;BMP280;15453;53.692;10.168;2023-08-31T07:45:45;100316.38;;;18.28
27986;BMP280;15453;53.692;10.168;2023-08-31T07:48:11;100316.38;;;18.28
27986;BMP280;15453;53.692;10.168;2023-08-31T07:50:36;100295.00;;;18.29
27986;BMP280;15453;53.692;10.168;2023-08-31T07:53:01;100302.72;;;18.32
27986;BMP280;15453;53.692;10.168;2023-08-31T07:55:26;100298.53;;;18.34
27986;BMP280;15453;53.692;10.168;2023-08-31T07:57:51;100303.16;;;18.39
27986;BMP280;15453;53.692;10.168;2023-08-31T08:00:17;100302.53;;;18.42
27986;BMP280;15453;53.692;10.168;2023-08-31T08:02:45;100297.97;;;18.46
27986;BMP280;15453;53.692;10.168;2023-08-31T08:05:10;100306.22;;;18.51
27986;BMP280;15453;53.692;10.168;2023-08-31T08:07:35;100298.38;;;18.53
27986;BMP280;15453;53.692;10.168;2023-08-31T08:10:01;100302.06;;;18.62
27986;BMP280;15453;53.692;10.168;2023-08-31T08:12:26;100302.06;;;18.62
27986;BMP280;15453;53.692;10.168;2023-08-31T08:14:51;100309.13;;;18.68
27986;BMP280;15453;53.692;10.168;2023-08-31T08:17:16;100309.13;;;18.68
27986;BMP280;15453;53.692;10.168;2023-08-31T08:19:42;100298.03;;;18.68
27986;BMP280;15453;53.692;10.168;2023-08-31T08:22:07;100312.19;;;18.80
27986;BMP280;15453;53.692;10.168;2023-08-31T08:24:32;100312.19;;;18.80
27986;BMP280;15453;53.692;10.168;2023-08-31T08:26:58;100309.41;;;18.80
27986;BMP280;15453;53.692;10.168;2023-08-31T08:29:24;100312.06;;;18.85
27986;BMP280;15453;53.692;10.168;2023-08-31T08:31:49;100311.94;;;18.90
27986;BMP280;15453;53.692;10.168;2023-08-31T08:34:14;100319.50;;;18.98
27986;BMP280;15453;53.692;10.168;2023-08-31T08:36:39;100315.47;;;19.04
27986;BMP280;15453;53.692;10.168;2023-08-31T08:39:05;100317.31;;;19.08
27986;BMP280;15453;53.692;10.168;2023-08-31T08:41:32;100325.56;;;19.22
27986;BMP280;15453;53.692;10.168;2023-08-31T08:44:02;100325.56;;;19.22
27986;BMP280;15453;53.692;10.168;2023-08-31T08:46:29;100321.66;;;19.23
27986;BMP280;15453;53.692;10.168;2023-08-31T08:48:55;100319.09;;;19.26
27986;BMP280;15453;53.692;10.168;2023-08-31T08:51:22;100316.50;;;19.30
27986;BMP280;15453;53.692;10.168;2023-08-31T08:53:50;100321.94;;;19.35
27986;BMP280;15453;53.692;10.168;2023-08-31T08:56:16;100330.44;;;19.38
27986;BMP280;15453;53.692;10.168;2023-08-31T08:58:41;100326.19;;;19.41
27986;BMP280;15453;53.692;10.168;2023-08-31T09:01:07;100341.63;;;19.47
27986;BMP280;15453;53.692;10.168;2023-08-31T09:03:32;100341.63;;;19.47
27986;BMP280;15453;53.692;10.168;2023-08-31T09:05:59;100335.91;;;19.52
27986;BMP280;15453;53.692;10.168;2023-08-31T09:08:27;100335.91;;;19.52
27986;BMP280;15453;53.692;10.168;2023-08-31T09:10:55;100337.88;;;19.51
27986;BMP280;15453;53.692;10.168;2023-08-31T09:13:25;100337.22;;;19.54
27986;BMP280;15453;53.692;10.168;2023-08-31T09:15:51;100344.50;;;19.64
27986;BMP280;15453;53.692;10.168;2023-08-31T09:18:27;100344.66;;;19.67
27986;BMP280;15453;53.692;10.168;2023-08-31T09:20:53;100344.66;;;19.67
27986;BMP280;15453;53.692;10.168;2023-08-31T09:23:18;100338.31;;;19.67
27986;BMP280;15453;53.692;10.168;2023-08-31T09:25:48;100344.66;;;19.67
27986;BMP280;15453;53.692;10.168;2023-08-31T09:28:15;100347.13;;;19.69
27986;BMP280;15453;53.692;10.168;2023-08-31T09:30:41;100351.53;;;19.70
27986;BMP280;15453;53.692;10.168;2023-08-31T09:33:16;100348.44;;;19.71
27986;BMP280;15453;53.692;10.168;2023-08-31T09:35:57;100345.97;;;19.70
27986;BMP280;15453;53.692;10.168;2023-08-31T09:38:22;100344.66;;;19.67
27986;BMP280;15453;53.692;10.168;2023-08-31T09:40:48;100341.56;;;19.69
27986;BMP280;15453;53.692;10.168;2023-08-31T09:43:25;100349.91;;;19.69
27986;BMP280;15453;53.692;10.168;2023-08-31T09:45:51;100346.81;;;19.70
27986;BMP280;15453;53.692;10.168;2023-08-31T09:48:17;100349.13;;;19.77
27986;BMP280;15453;53.692;10.168;2023-08-31T09:50:44;100345.56;;;19.85
27986;BMP280;15453;53.692;10.168;2023-08-31T09:53:11;100345.59;;;19.93
27986;BMP280;15453;53.692;10.168;2023-08-31T09:55:39;100349.56;;;20.01
27986;BMP280;15453;53.692;10.168;2023-08-31T09:58:06;100340.75;;;20.07
27986;BMP280;15453;53.692;10.168;2023-08-31T10:00:35;100337.22;;;20.15
27986;BMP280;15453;53.692;10.168;2023-08-31T10:03:03;100338.06;;;20.24
27986;BMP280;15453;53.692;10.168;2023-08-31T10:05:29;100339.22;;;20.32
27986;BMP280;15453;53.692;10.168;2023-08-31T10:07:57;100338.13;;;20.41
27986;BMP280;15453;53.692;10.168;2023-08-31T10:10:22;100339.09;;;20.54
27986;BMP280;15453;53.692;10.168;2023-08-31T10:12:48;100332.94;;;20.65
27986;BMP280;15453;53.692;10.168;2023-08-31T10:15:16;100337.53;;;20.78
27986;BMP280;15453;53.692;10.168;2023-08-31T10:17:42;100331.00;;;20.91
27986;BMP280;15453;53.692;10.168;2023-08-31T10:20:09;100324.78;;;21.03
27986;BMP280;15453;53.692;10.168;2023-08-31T10:22:35;100335.59;;;21.13
27986;BMP280;15453;53.692;10.168;2023-08-31T10:25:03;100330.19;;;21.25
27986;BMP280;15453;53.692;10.168;2023-08-31T10:27:42;100341.81;;;21.35
27986;BMP280;15453;53.692;10.168;2023-08-31T10:32:39;100343.56;;;21.48
27986;BMP280;15453;53.692;10.168;2023-08-31T10:35:06;100345.69;;;21.51
27986;BMP280;15453;53.692;10.168;2023-08-31T10:37:32;100346.84;;;21.50
27986;BMP280;15453;53.692;10.168;2023-08-31T10:40:10;100344.06;;;21.50
27986;BMP280;15453;53.692;10.168;2023-08-31T10:42:43;100349.81;;;21.45
27986;BMP280;15453;53.692;10.168;2023-08-31T10:45:09;100347.00;;;21.45
27986;BMP280;15453;53.692;10.168;2023-08-31T10:47:39;100347.34;;;21.44
27986;BMP280;15453;53.692;10.168;2023-08-31T10:50:16;100348.81;;;21.41
27986;BMP280;15453;53.692;10.168;2023-08-31T10:52:45;100348.66;;;21.46
27986;BMP280;15453;53.692;10.168;2023-08-31T10:55:11;100348.66;;;21.46
27986;BMP280;15453;53.692;10.168;2023-08-31T10:57:36;100343.72;;;21.43
27986;BMP280;15453;53.692;10.168;2023-08-31T11:00:02;100339.63;;;21.41
27986;BMP280;15453;53.692;10.168;2023-08-31T11:05:07;100354.91;;;21.35
27986;BMP280;15453;53.692;10.168;2023-08-31T11:07:33;100349.50;;;21.30
27986;BMP280;15453;53.692;10.168;2023-08-31T11:10:13;100345.41;;;21.27
27986;BMP280;15453;53.692;10.168;2023-08-31T11:12:46;100341.31;;;21.25
27986;BMP280;15453;53.692;10.168;2023-08-31T11:15:20;100348.53;;;21.26
27986;BMP280;15453;53.692;10.168;2023-08-31T11:17:46;100349.81;;;21.28
27986;BMP280;15453;53.692;10.168;2023-08-31T11:20:16;100354.56;;;21.28
27986;BMP280;15453;53.692;10.168;2023-08-31T11:22:43;100356.88;;;21.26
27986;BMP280;15453;53.692;10.168;2023-08-31T11:25:10;100349.50;;;21.21
27986;BMP280;15453;53.692;10.168;2023-08-31T11:27:36;100354.59;;;21.19
27986;BMP280;15453;53.692;10.168;2023-08-31T11:30:02;100354.59;;;21.19
27986;BMP280;15453;53.692;10.168;2023-08-31T11:32:28;100357.69;;;21.18
27986;BMP280;15453;53.692;10.168;2023-08-31T11:34:53;100357.69;;;21.18
27986;BMP280;15453;53.692;10.168;2023-08-31T11:37:19;100350.16;;;21.18
27986;BMP280;15453;53.692;10.168;2023-08-31T11:39:50;100346.22;;;21.28
27986;BMP280;15453;53.692;10.168;2023-08-31T11:42:15;100345.56;;;21.39
27986;BMP280;15453;53.692;10.168;2023-08-31T11:44:41;100356.00;;;21.59
27986;BMP280;15453;53.692;10.168;2023-08-31T11:47:06;100356.00;;;21.59
27986;BMP280;15453;53.692;10.168;2023-08-31T11:49:32;100355.84;;;21.64
27986;BMP280;15453;53.692;10.168;2023-08-31T11:51:57;100355.84;;;21.64
27986;BMP280;15453;53.692;10.168;2023-08-31T11:54:25;100350.09;;;21.61
27986;BMP280;15453;53.692;10.168;2023-08-31T11:56:51;100356.97;;;21.63
27986;BMP280;15453;53.692;10.168;2023-08-31T11:59:17;100352.38;;;21.67
27986;BMP280;15453;53.692;10.168;2023-08-31T12:01:45;100361.91;;;21.75
27986;BMP280;15453;53.692;10.168;2023-08-31T12:04:12;100354.34;;;21.84
27986;BMP280;15453;53.692;10.168;2023-08-31T12:06:38;100356.94;;;21.89
27986;BMP280;15453;53.692;10.168;2023-08-31T12:09:08;100363.16;;;21.94
27986;BMP280;15453;53.692;10.168;2023-08-31T12:11:34;100358.22;;;22.00
27986;BMP280;15453;53.692;10.168;2023-08-31T12:14:00;100361.78;;;22.09
27986;BMP280;15453;53.692;10.168;2023-08-31T12:16:32;100372.69;;;22.23
27986;BMP280;15453;53.692;10.168;2023-08-31T12:19:04;100372.34;;;22.33
27986;BMP280;15453;53.692;10.168;2023-08-31T12:21:30;100367.84;;;22.40
27986;BMP280;15453;53.692;10.168;2023-08-31T12:23:57;100376.56;;;22.47
27986;BMP280;15453;53.692;10.168;2023-08-31T12:26:23;100373.22;;;22.54
27986;BMP280;15453;53.692;10.168;2023-08-31T12:28:48;100373.22;;;22.54
27986;BMP280;15453;53.692;10.168;2023-08-31T12:31:13;100369.63;;;22.53
27986;BMP280;15453;53.692;10.168;2023-08-31T12:33:39;100376.16;;;22.57
27986;BMP280;15453;53.692;10.168;2023-08-31T12:36:04;100377.94;;;22.62
27986;BMP280;15453;53.692;10.168;2023-08-31T12:38:30;100373.66;;;22.64
27986;BMP280;15453;53.692;10.168;2023-08-31T12:40:55;100369.84;;;22.69
27986;BMP280;15453;53.692;10.168;2023-08-31T12:43:20;100371.75;;;22.77
27986;BMP280;15453;53.692;10.168;2023-08-31T12:45:45;100370.09;;;22.84
27986;BMP280;15453;53.692;10.168;2023-08-31T12:48:11;100371.84;;;22.89
27986;BMP280;15453;53.692;10.168;2023-08-31T12:50:36;100385.00;;;22.88
27986;BMP280;15453;53.692;10.168;2023-08-31T12:53:01;100389.28;;;22.86
27986;BMP280;15453;53.692;10.168;2023-08-31T12:55:26;100401.16;;;22.74
27986;BMP280;15453;53.692;10.168;2023-08-31T12:57:52;100415.53;;;22.64
27986;BMP280;15453;53.692;10.168;2023-08-31T13:00:18;100415.53;;;22.64
27986;BMP280;15453;53.692;10.168;2023-08-31T13:02:43;100400.19;;;22.50
27986;BMP280;15453;53.692;10.168;2023-08-31T13:05:10;100412.16;;;22.42
27986;BMP280;15453;53.692;10.168;2023-08-31T13:07:38;100419.91;;;22.36
27986;BMP280;15453;53.692;10.168;2023-08-31T13:10:04;100418.13;;;22.32
27986;BMP280;15453;53.692;10.168;2023-08-31T13:12:31;100423.72;;;22.32
27986;BMP280;15453;53.692;10.168;2023-08-31T13:14:56;100417.31;;;22.31
27986;BMP280;15453;53.692;10.168;2023-08-31T13:17:22;100423.22;;;22.30
27986;BMP280;15453;53.692;10.168;2023-08-31T13:19:52;100426.34;;;22.28
27986;BMP280;15453;53.692;10.168;2023-08-31T13:22:17;100431.28;;;22.23
27986;BMP280;15453;53.692;10.168;2023-08-31T13:24:42;100428.34;;;22.19
27986;BMP280;15453;53.692;10.168;2023-08-31T13:27:07;100429.38;;;22.15
27986;BMP280;15453;53.692;10.168;2023-08-31T13:29:33;100429.38;;;22.15
27986;BMP280;15453;53.692;10.168;2023-08-31T13:31:58;100427.69;;;22.13
27986;BMP280;15453;53.692;10.168;2023-08-31T13:34:23;100427.69;;;22.13
27986;BMP280;15453;53.692;10.168;2023-08-31T13:36:48;100428.19;;;22.16
27986;BMP280;15453;53.692;10.168;2023-08-31T13:39:14;100426.06;;;22.21
27986;BMP280;15453;53.692;10.168;2023-08-31T13:41:39;100427.03;;;22.25
27986;BMP280;15453;53.692;10.168;2023-08-31T13:44:05;100439.91;;;22.47
27986;BMP280;15453;53.692;10.168;2023-08-31T13:46:31;100439.91;;;22.47
27986;BMP280;15453;53.692;10.168;2023-08-31T13:48:56;100425.44;;;22.53